Terminal Aerodrome Forecast
Issued by NWS

Current Version | Previous Version | Text Only | Print | Product List | Glossary On
Versions: 1 2 3 4 5 6 7 8 9 10 11 12 13 14 15
143
FTUS44 KMAF 210520
TAFINK
TAF
KINK 210520Z 2106/2206 16008KT P6SM SCT050 BKN120
      TEMPO 2108/2111 VRB15G25KT -TSRA BKN050CB=

USA.gov is the U.S. government's official web portal to all federal, state and local government web resources and services.